createdAt,value
2018-12-21T00:00:42.151Z,1009.79
2018-12-21T00:01:42.140Z,1009.83
2018-12-21T00:02:43.368Z,1009.81
2018-12-21T00:03:42.118Z,1009.77
2018-12-21T00:04:42.111Z,1009.78
2018-12-21T00:05:42.099Z,1009.79
2018-12-21T00:06:42.086Z,1009.73
2018-12-21T00:07:42.076Z,1009.75
2018-12-21T00:08:42.065Z,1009.77
2018-12-21T00:09:42.056Z,1009.76
2018-12-21T00:10:42.044Z,1009.75
2018-12-21T00:11:42.037Z,1009.77
2018-12-21T00:12:42.023Z,1009.76
2018-12-21T00:13:42.014Z,1009.75
2018-12-21T00:14:42.000Z,1009.76
2018-12-21T00:15:41.990Z,1009.74
2018-12-21T00:16:41.980Z,1009.67
2018-12-21T00:17:41.969Z,1009.69
2018-12-21T00:18:41.959Z,1009.69
2018-12-21T00:19:41.947Z,1009.68
2018-12-21T00:20:41.938Z,1009.70
2018-12-21T00:21:41.926Z,1009.64
2018-12-21T00:22:41.916Z,1009.63
2018-12-21T00:23:41.907Z,1009.64
2018-12-21T00:24:41.895Z,1009.64
2018-12-21T00:25:41.886Z,1009.64
2018-12-21T00:26:41.876Z,1009.63
2018-12-21T00:27:41.869Z,1009.63
2018-12-21T00:28:41.851Z,1009.57
2018-12-21T00:29:41.845Z,1009.63
2018-12-21T00:30:41.831Z,1009.56
2018-12-21T00:31:41.820Z,1009.67
2018-12-21T00:32:41.809Z,1009.64
2018-12-21T00:33:41.805Z,1009.65
2018-12-21T00:34:41.788Z,1009.61
2018-12-21T00:35:41.779Z,1009.64
2018-12-21T00:36:41.766Z,1009.61
2018-12-21T00:37:41.757Z,1009.63
2018-12-21T00:38:41.748Z,1009.60
2018-12-21T00:39:41.736Z,1009.56
2018-12-21T00:40:41.724Z,1009.53
2018-12-21T00:41:41.714Z,1009.56
2018-12-21T00:42:41.704Z,1009.54
2018-12-21T00:43:41.694Z,1009.53
2018-12-21T00:44:41.682Z,1009.56
2018-12-21T00:45:41.672Z,1009.57
2018-12-21T00:46:41.663Z,1009.57
2018-12-21T00:47:41.651Z,1009.62
2018-12-21T00:48:41.639Z,1009.56
2018-12-21T00:49:41.629Z,1009.57
2018-12-21T00:50:41.618Z,1009.51
2018-12-21T00:51:41.609Z,1009.56
2018-12-21T00:52:41.597Z,1009.59
2018-12-21T00:53:41.586Z,1009.58
2018-12-21T00:54:41.576Z,1009.54
2018-12-21T00:55:41.565Z,1009.58
2018-12-21T00:56:41.554Z,1009.59
2018-12-21T00:57:41.547Z,1009.54
2018-12-21T00:58:41.533Z,1009.58
2018-12-21T00:59:41.523Z,1009.57
2018-12-21T01:00:41.518Z,1009.62
2018-12-21T01:01:41.502Z,1009.62
2018-12-21T01:02:41.495Z,1009.61
2018-12-21T01:03:41.481Z,1009.61
2018-12-21T01:04:41.470Z,1009.66
2018-12-21T01:05:41.459Z,1009.63
2018-12-21T01:06:41.448Z,1009.67
2018-12-21T01:07:41.441Z,1009.66
2018-12-21T01:08:41.427Z,1009.69
2018-12-21T01:09:41.416Z,1009.71
2018-12-21T01:10:41.406Z,1009.67
2018-12-21T01:11:41.397Z,1009.73
2018-12-21T01:12:41.385Z,1009.75
2018-12-21T01:13:41.375Z,1009.77
2018-12-21T01:14:41.363Z,1009.78
2018-12-21T01:15:41.354Z,1009.72
2018-12-21T01:16:41.341Z,1009.77
2018-12-21T01:17:41.331Z,1009.78
2018-12-21T01:18:41.321Z,1009.74
2018-12-21T01:19:41.310Z,1009.77
2018-12-21T01:20:41.298Z,1009.71
2018-12-21T01:21:41.289Z,1009.77
2018-12-21T01:22:41.278Z,1009.74
2018-12-21T01:23:41.267Z,1009.79
2018-12-21T01:24:41.258Z,1009.74
2018-12-21T01:25:41.248Z,1009.72
2018-12-21T01:26:41.235Z,1009.70
2018-12-21T01:27:41.225Z,1009.73
2018-12-21T01:28:41.214Z,1009.77
2018-12-21T01:29:41.204Z,1009.74
2018-12-21T01:30:41.193Z,1009.67
2018-12-21T01:31:41.182Z,1009.71
2018-12-21T01:32:41.170Z,1009.73
2018-12-21T01:33:41.164Z,1009.70
2018-12-21T01:34:41.157Z,1009.65
2018-12-21T01:35:41.140Z,1009.69
2018-12-21T01:36:41.132Z,1009.62
2018-12-21T01:37:41.124Z,1009.64
2018-12-21T01:38:41.107Z,1009.61
2018-12-21T01:39:41.103Z,1009.62
2018-12-21T01:40:41.197Z,1009.64
2018-12-21T01:41:41.076Z,1009.61
2018-12-21T01:42:41.066Z,1009.58
2018-12-21T01:43:41.057Z,1009.57
2018-12-21T01:44:41.046Z,1009.50
2018-12-21T01:45:41.040Z,1009.50
2018-12-21T01:46:41.024Z,1009.53
2018-12-21T01:47:41.012Z,1009.48
2018-12-21T01:48:41.003Z,1009.55
2018-12-21T01:49:40.993Z,1009.57
2018-12-21T01:50:40.984Z,1009.55
2018-12-21T01:51:47.136Z,1009.55
2018-12-21T01:52:41.958Z,1009.53
2018-12-21T01:53:40.949Z,1009.51
2018-12-21T01:54:40.940Z,1009.50
2018-12-21T01:55:40.927Z,1009.44
2018-12-21T01:56:40.918Z,1009.47
2018-12-21T01:57:40.912Z,1009.47
2018-12-21T01:58:40.899Z,1009.44
2018-12-21T01:59:40.887Z,1009.43
2018-12-21T02:00:40.878Z,1009.45
2018-12-21T02:01:40.867Z,1009.43
2018-12-21T02:02:40.855Z,1009.38
2018-12-21T02:03:40.846Z,1009.38
2018-12-21T02:04:40.833Z,1009.38
2018-12-21T02:05:40.826Z,1009.34
2018-12-21T02:06:40.814Z,1009.33
2018-12-21T02:07:40.803Z,1009.39
2018-12-21T02:08:40.794Z,1009.34
2018-12-21T02:09:40.782Z,1009.32
2018-12-21T02:10:40.771Z,1009.30
2018-12-21T02:11:40.758Z,1009.37
2018-12-21T02:12:40.747Z,1009.35
2018-12-21T02:13:40.738Z,1009.34
2018-12-21T02:14:40.728Z,1009.32
2018-12-21T02:15:40.716Z,1009.27
2018-12-21T02:16:40.705Z,1009.31
2018-12-21T02:17:40.703Z,1009.30
2018-12-21T02:18:40.684Z,1009.32
2018-12-21T02:19:40.673Z,1009.24
2018-12-21T02:20:40.663Z,1009.29
2018-12-21T02:21:40.653Z,1009.23
2018-12-21T02:22:40.643Z,1009.24
2018-12-21T02:23:40.632Z,1009.25
2018-12-21T02:24:40.621Z,1009.22
2018-12-21T02:25:40.610Z,1009.19
2018-12-21T02:26:40.602Z,1009.18
2018-12-21T02:27:40.588Z,1009.18
2018-12-21T02:28:40.579Z,1009.17
2018-12-21T02:29:40.567Z,1009.16
2018-12-21T02:30:40.558Z,1009.14
2018-12-21T02:31:40.551Z,1009.14
2018-12-21T02:32:40.536Z,1009.15
2018-12-21T02:33:40.524Z,1009.10
2018-12-21T02:34:40.526Z,1009.10
2018-12-21T02:35:40.507Z,1009.17
2018-12-21T02:36:40.493Z,1009.10
2018-12-21T02:37:40.488Z,1009.12
2018-12-21T02:38:40.471Z,1009.11
2018-12-21T02:39:40.469Z,1009.14
2018-12-21T02:40:40.487Z,1009.11
2018-12-21T02:41:40.440Z,1009.13
2018-12-21T02:42:40.428Z,1009.10
2018-12-21T02:43:40.429Z,1009.13
2018-12-21T02:44:40.423Z,1009.13
2018-12-21T02:45:40.400Z,1009.10
2018-12-21T02:46:40.387Z,1009.10
2018-12-21T02:47:40.375Z,1009.13
2018-12-21T02:48:40.364Z,1009.10
2018-12-21T02:49:40.354Z,1009.09
2018-12-21T02:50:40.356Z,1009.09
2018-12-21T02:51:40.332Z,1009.08
2018-12-21T02:52:40.335Z,1009.09
2018-12-21T02:53:40.313Z,1009.12
2018-12-21T02:54:40.300Z,1009.09
2018-12-21T02:55:40.314Z,1009.06
2018-12-21T02:56:40.282Z,1009.09
2018-12-21T02:57:40.273Z,1009.09
2018-12-21T02:58:40.259Z,1009.08
2018-12-21T02:59:40.250Z,1009.06
2018-12-21T03:00:40.241Z,1009.04
2018-12-21T03:01:40.226Z,1009.03
2018-12-21T03:02:40.238Z,1009.05
2018-12-21T03:03:40.206Z,1009.00
2018-12-21T03:04:40.198Z,1009.03
2018-12-21T03:05:40.184Z,1009.00
2018-12-21T03:06:40.187Z,1008.99
2018-12-21T03:07:40.164Z,1009.01
2018-12-21T03:08:40.151Z,1009.02
2018-12-21T03:09:40.148Z,1008.98
2018-12-21T03:10:40.131Z,1008.96
2018-12-21T03:11:40.123Z,1008.96
2018-12-21T03:12:40.108Z,1008.93
2018-12-21T03:13:40.100Z,1008.92
2018-12-21T03:14:40.087Z,1008.90
2018-12-21T03:15:40.076Z,1008.87
2018-12-21T03:16:40.073Z,1008.86
2018-12-21T03:17:40.056Z,1008.91
2018-12-21T03:18:40.044Z,1008.91
2018-12-21T03:19:40.033Z,1008.92
2018-12-21T03:20:40.022Z,1008.86
2018-12-21T03:21:40.012Z,1008.95
2018-12-21T03:22:40.001Z,1008.93
2018-12-21T03:23:39.993Z,1008.91
2018-12-21T03:24:39.983Z,1008.87
2018-12-21T03:25:39.969Z,1008.92
2018-12-21T03:26:39.962Z,1008.89
2018-12-21T03:27:39.946Z,1008.89
2018-12-21T03:28:39.944Z,1008.86
2018-12-21T03:29:39.928Z,1008.89
2018-12-21T03:30:39.917Z,1008.91
2018-12-21T03:31:39.914Z,1008.95
2018-12-21T03:32:39.918Z,1008.89
2018-12-21T03:33:39.885Z,1008.93
2018-12-21T03:34:39.882Z,1008.94
2018-12-21T03:35:39.866Z,1008.94
2018-12-21T03:36:39.858Z,1008.91
2018-12-21T03:37:39.841Z,1008.90
2018-12-21T03:38:39.833Z,1008.92
2018-12-21T03:39:39.836Z,1008.83
2018-12-21T03:40:39.814Z,1008.79
2018-12-21T03:41:39.800Z,1008.84
2018-12-21T03:42:39.789Z,1008.86
2018-12-21T03:43:39.776Z,1008.79
2018-12-21T03:44:39.767Z,1008.78
2018-12-21T03:45:39.756Z,1008.76
2018-12-21T03:46:39.750Z,1008.81
2018-12-21T03:47:39.745Z,1008.74
2018-12-21T03:48:39.725Z,1008.72
2018-12-21T03:49:39.712Z,1008.72
2018-12-21T03:50:39.702Z,1008.73
2018-12-21T03:51:39.713Z,1008.72
2018-12-21T03:52:39.681Z,1008.77
2018-12-21T03:53:39.668Z,1008.72
2018-12-21T03:54:39.662Z,1008.70
2018-12-21T03:55:39.648Z,1008.72
2018-12-21T03:56:39.638Z,1008.68
2018-12-21T03:57:39.627Z,1008.67
2018-12-21T03:58:39.731Z,1008.71
2018-12-21T03:59:39.606Z,1008.71
2018-12-21T04:00:39.594Z,1008.63
2018-12-21T04:01:39.584Z,1008.65
2018-12-21T04:02:39.573Z,1008.65
2018-12-21T04:03:39.571Z,1008.68
2018-12-21T04:04:39.551Z,1008.62
2018-12-21T04:05:39.542Z,1008.65
2018-12-21T04:06:39.531Z,1008.59
2018-12-21T04:07:39.527Z,1008.58
2018-12-21T04:08:39.510Z,1008.61
2018-12-21T04:09:39.497Z,1008.61
2018-12-21T04:10:39.489Z,1008.63
2018-12-21T04:11:39.476Z,1008.62
2018-12-21T04:12:39.469Z,1008.59
2018-12-21T04:13:39.457Z,1008.54
2018-12-21T04:14:39.447Z,1008.61
2018-12-21T04:15:39.434Z,1008.57
2018-12-21T04:16:39.429Z,1008.56
2018-12-21T04:17:39.413Z,1008.54
2018-12-21T04:18:39.403Z,1008.50
2018-12-21T04:19:39.393Z,1008.55
2018-12-21T04:20:39.381Z,1008.52
2018-12-21T04:21:39.370Z,1008.53
2018-12-21T04:22:39.359Z,1008.58
2018-12-21T04:23:39.532Z,1008.58
2018-12-21T04:24:39.340Z,1008.59
2018-12-21T04:25:39.333Z,1008.57
2018-12-21T04:26:39.318Z,1008.52
2018-12-21T04:27:39.313Z,1008.49
2018-12-21T04:28:39.295Z,1008.52
2018-12-21T04:29:39.286Z,1008.50
2018-12-21T04:30:39.275Z,1008.45
2018-12-21T04:31:39.265Z,1008.48
2018-12-21T04:32:39.253Z,1008.47
2018-12-21T04:33:39.246Z,1008.48
2018-12-21T04:34:39.233Z,1008.49
2018-12-21T04:35:39.228Z,1008.47
2018-12-21T04:36:39.216Z,1008.48
2018-12-21T04:37:39.199Z,1008.47
2018-12-21T04:38:39.190Z,1008.49
2018-12-21T04:39:39.273Z,1008.48
2018-12-21T04:40:39.167Z,1008.44
2018-12-21T04:41:39.164Z,1008.47
2018-12-21T04:42:39.149Z,1008.44
2018-12-21T04:43:39.136Z,1008.43
2018-12-21T04:44:39.126Z,1008.43
2018-12-21T04:45:39.114Z,1008.41
2018-12-21T04:46:39.103Z,1008.41
2018-12-21T04:47:39.096Z,1008.45
2018-12-21T04:48:39.082Z,1008.45
2018-12-21T04:49:39.075Z,1008.43
2018-12-21T04:50:39.060Z,1008.42
2018-12-21T04:51:39.054Z,1008.42
2018-12-21T04:52:43.324Z,1008.41
2018-12-21T04:53:39.028Z,1008.41
2018-12-21T04:54:39.018Z,1008.40
2018-12-21T04:55:39.011Z,1008.39
2018-12-21T04:56:38.997Z,1008.36
2018-12-21T04:57:38.996Z,1008.35
2018-12-21T04:58:38.977Z,1008.34
2018-12-21T04:59:38.967Z,1008.35
2018-12-21T05:00:38.954Z,1008.36
2018-12-21T05:01:38.942Z,1008.36
2018-12-21T05:02:38.932Z,1008.39
2018-12-21T05:03:38.922Z,1008.31
2018-12-21T05:04:38.910Z,1008.33
2018-12-21T05:05:39.614Z,1008.32
2018-12-21T05:06:38.891Z,1008.32
2018-12-21T05:07:38.880Z,1008.33
2018-12-21T05:08:38.869Z,1008.29
2018-12-21T05:09:38.859Z,1008.34
2018-12-21T05:10:38.847Z,1008.31
2018-12-21T05:11:38.837Z,1008.30
2018-12-21T05:12:38.827Z,1008.30
2018-12-21T05:13:38.817Z,1008.29
2018-12-21T05:14:38.804Z,1008.29
2018-12-21T05:15:38.794Z,1008.26
2018-12-21T05:16:38.782Z,1008.22
2018-12-21T05:17:38.791Z,1008.27
2018-12-21T05:18:38.763Z,1008.22
2018-12-21T05:19:38.752Z,1008.28
2018-12-21T05:20:38.741Z,1008.27
2018-12-21T05:21:38.733Z,1008.21
2018-12-21T05:22:38.718Z,1008.16
2018-12-21T05:23:38.709Z,1008.25
2018-12-21T05:24:38.698Z,1008.26
2018-12-21T05:25:38.687Z,1008.16
2018-12-21T05:26:38.677Z,1008.18
2018-12-21T05:27:38.664Z,1008.22
2018-12-21T05:28:38.654Z,1008.20
2018-12-21T05:29:39.711Z,1008.22
2018-12-21T05:30:38.636Z,1008.20
2018-12-21T05:31:38.629Z,1008.19
2018-12-21T05:32:38.618Z,1008.15
2018-12-21T05:33:38.606Z,1008.18
2018-12-21T05:34:38.592Z,1008.13
2018-12-21T05:35:38.588Z,1008.15
2018-12-21T05:36:38.573Z,1008.12
2018-12-21T05:37:38.562Z,1008.19
2018-12-21T05:38:38.548Z,1008.17
2018-12-21T05:39:38.538Z,1008.16
2018-12-21T05:40:38.525Z,1008.17
2018-12-21T05:41:38.516Z,1008.14
2018-12-21T05:42:38.505Z,1008.12
2018-12-21T05:43:38.498Z,1008.16
2018-12-21T05:44:38.486Z,1008.14
2018-12-21T05:45:38.473Z,1008.18
2018-12-21T05:46:38.461Z,1008.12
2018-12-21T05:47:38.456Z,1008.08
2018-12-21T05:48:38.443Z,1008.09
2018-12-21T05:49:38.429Z,1008.07
2018-12-21T05:50:38.479Z,1008.05
2018-12-21T05:51:38.409Z,1008.06
2018-12-21T05:52:38.399Z,1008.02
2018-12-21T05:53:38.394Z,1007.98
2018-12-21T05:54:38.378Z,1008.02
2018-12-21T05:55:38.366Z,1007.97
2018-12-21T05:56:38.357Z,1007.93
2018-12-21T05:57:38.353Z,1007.94
2018-12-21T05:58:38.364Z,1007.89
2018-12-21T05:59:38.383Z,1007.88
2018-12-21T06:00:38.347Z,1007.86
2018-12-21T06:01:38.316Z,1007.83
2018-12-21T06:02:38.291Z,1007.85
2018-12-21T06:03:38.279Z,1007.87
2018-12-21T06:04:38.315Z,1007.83
2018-12-21T06:05:38.259Z,1007.81
2018-12-21T06:06:38.246Z,1007.87
2018-12-21T06:07:38.259Z,1007.89
2018-12-21T06:08:38.227Z,1007.77
2018-12-21T06:09:38.215Z,1007.75
2018-12-21T06:10:38.204Z,1007.75
2018-12-21T06:11:38.194Z,1007.71
2018-12-21T06:12:38.183Z,1007.67
2018-12-21T06:13:38.173Z,1007.67
2018-12-21T06:14:38.164Z,1007.68
2018-12-21T06:15:38.151Z,1007.58
2018-12-21T06:16:38.142Z,1007.58
2018-12-21T06:17:38.132Z,1007.54
2018-12-21T06:18:38.120Z,1007.58
2018-12-21T06:19:38.108Z,1007.56
2018-12-21T06:20:38.098Z,1007.55
2018-12-21T06:21:38.087Z,1007.58
2018-12-21T06:22:38.076Z,1007.48
2018-12-21T06:23:38.068Z,1007.50
2018-12-21T06:24:38.055Z,1007.47
2018-12-21T06:25:38.049Z,1007.43
2018-12-21T06:26:38.199Z,1007.42
2018-12-21T06:27:38.058Z,1007.42
2018-12-21T06:28:38.114Z,1007.38
2018-12-21T06:29:38.006Z,1007.37
2018-12-21T06:30:37.991Z,1007.36
2018-12-21T06:31:37.981Z,1007.32
2018-12-21T06:32:40.025Z,1007.30
2018-12-21T06:33:37.959Z,1007.21
2018-12-21T06:34:37.949Z,1007.20
2018-12-21T06:35:37.936Z,1007.13
2018-12-21T06:36:37.928Z,1007.09
2018-12-21T06:37:37.916Z,1007.15
2018-12-21T06:38:37.904Z,1007.16
2018-12-21T06:39:37.893Z,1007.15
2018-12-21T06:40:40.515Z,1007.13
2018-12-21T06:41:37.873Z,1007.08
2018-12-21T06:42:37.865Z,1007.10
2018-12-21T06:43:37.851Z,1007.06
2018-12-21T06:44:37.843Z,1007.07
2018-12-21T06:45:37.828Z,1007.08
2018-12-21T06:46:37.819Z,1007.03
2018-12-21T06:47:37.808Z,1007.03
2018-12-21T06:48:37.797Z,1007.01
2018-12-21T06:49:37.787Z,1006.99
2018-12-21T06:50:37.777Z,1007.05
2018-12-21T06:51:37.766Z,1007.03
2018-12-21T06:52:37.755Z,1007.02
2018-12-21T06:53:37.744Z,1007.04
2018-12-21T06:54:37.735Z,1007.01
2018-12-21T06:55:37.723Z,1007.05
2018-12-21T06:56:37.713Z,1007.02
2018-12-21T06:57:37.704Z,1006.98
2018-12-21T06:58:37.691Z,1007.04
2018-12-21T06:59:37.681Z,1006.99
2018-12-21T07:00:37.671Z,1006.98
2018-12-21T07:01:37.659Z,1006.98
2018-12-21T07:02:37.648Z,1006.94
2018-12-21T07:03:37.637Z,1006.97
2018-12-21T07:04:37.626Z,1006.96
2018-12-21T07:05:37.621Z,1006.96
2018-12-21T07:06:37.604Z,1006.93
2018-12-21T07:07:37.594Z,1006.90
2018-12-21T07:08:37.622Z,1006.94
2018-12-21T07:09:37.577Z,1006.92
2018-12-21T07:10:37.561Z,1006.89
2018-12-21T07:11:37.553Z,1006.87
2018-12-21T07:12:37.541Z,1006.89
2018-12-21T07:13:37.530Z,1006.88
2018-12-21T07:14:37.520Z,1006.90
2018-12-21T07:15:37.510Z,1006.83
2018-12-21T07:16:37.499Z,1006.90
2018-12-21T07:17:37.493Z,1006.86
2018-12-21T07:18:37.481Z,1006.87
2018-12-21T07:19:37.466Z,1006.85
2018-12-21T07:20:37.455Z,1006.80
2018-12-21T07:21:37.449Z,1006.80
2018-12-21T07:22:37.435Z,1006.84
2018-12-21T07:23:37.423Z,1006.88
2018-12-21T07:24:37.412Z,1006.80
2018-12-21T07:25:37.402Z,1006.78
2018-12-21T07:26:37.392Z,1006.79
2018-12-21T07:27:37.382Z,1006.72
2018-12-21T07:28:37.372Z,1006.75
2018-12-21T07:29:37.361Z,1006.71
2018-12-21T07:30:37.468Z,1006.76
2018-12-21T07:31:37.339Z,1006.68
2018-12-21T07:32:37.328Z,1006.69
2018-12-21T07:33:37.318Z,1006.70
2018-12-21T07:34:37.310Z,1006.75
2018-12-21T07:35:37.295Z,1006.73
2018-12-21T07:36:37.285Z,1006.73
2018-12-21T07:37:37.273Z,1006.72
2018-12-21T07:38:37.326Z,1006.69
2018-12-21T07:39:37.255Z,1006.69
2018-12-21T07:40:37.622Z,1006.66
2018-12-21T07:41:37.232Z,1006.65
2018-12-21T07:42:37.219Z,1006.65
2018-12-21T07:43:37.211Z,1006.65
2018-12-21T07:44:37.198Z,1006.65
2018-12-21T07:45:37.188Z,1006.65
2018-12-21T07:46:37.181Z,1006.61
2018-12-21T07:47:37.166Z,1006.64
2018-12-21T07:48:37.156Z,1006.57
2018-12-21T07:49:37.145Z,1006.56
2018-12-21T07:50:37.138Z,1006.59
2018-12-21T07:51:37.125Z,1006.60
2018-12-21T07:52:37.118Z,1006.59
2018-12-21T07:53:37.104Z,1006.57
2018-12-21T07:54:37.091Z,1006.59
2018-12-21T07:55:37.091Z,1006.50
2018-12-21T07:56:37.084Z,1006.58
2018-12-21T07:57:37.064Z,1006.53
2018-12-21T07:58:37.050Z,1006.56
2018-12-21T07:59:37.039Z,1006.56
2018-12-21T08:00:37.039Z,1006.55
2018-12-21T08:01:37.022Z,1006.49
2018-12-21T08:02:37.017Z,1006.50
2018-12-21T08:03:36.998Z,1006.53
2018-12-21T08:04:36.988Z,1006.49
2018-12-21T08:05:36.974Z,1006.50
2018-12-21T08:06:36.964Z,1006.48
2018-12-21T08:07:36.952Z,1006.39
2018-12-21T08:08:36.942Z,1006.44
2018-12-21T08:09:36.933Z,1006.39
2018-12-21T08:10:36.921Z,1006.41
2018-12-21T08:11:36.908Z,1006.36
2018-12-21T08:12:36.900Z,1006.39
2018-12-21T08:13:36.888Z,1006.35
2018-12-21T08:14:36.877Z,1006.32
2018-12-21T08:15:36.869Z,1006.30
2018-12-21T08:16:36.855Z,1006.34
2018-12-21T08:17:36.848Z,1006.28
2018-12-21T08:18:36.836Z,1006.26
2018-12-21T08:19:36.824Z,1006.33
2018-12-21T08:20:36.823Z,1006.25
2018-12-21T08:21:36.806Z,1006.25
2018-12-21T08:22:36.790Z,1006.30
2018-12-21T08:23:44.086Z,1006.32
2018-12-21T08:24:37.769Z,1006.28
2018-12-21T08:25:36.759Z,1006.27
2018-12-21T08:26:36.749Z,1006.26
2018-12-21T08:27:36.744Z,1006.26
2018-12-21T08:28:36.725Z,1006.13
2018-12-21T08:29:36.715Z,1006.09
2018-12-21T08:30:36.708Z,1006.11
2018-12-21T08:31:36.697Z,1006.10
2018-12-21T08:32:36.683Z,1006.10
2018-12-21T08:33:36.674Z,1006.09
2018-12-21T08:34:36.664Z,1006.08
2018-12-21T08:35:36.652Z,1006.03
2018-12-21T08:36:36.643Z,1006.03
2018-12-21T08:37:36.632Z,1006.02
2018-12-21T08:38:36.619Z,1006.02
2018-12-21T08:39:36.614Z,1006.01
2018-12-21T08:40:36.604Z,1005.94
2018-12-21T08:41:36.586Z,1005.99
2018-12-21T08:42:36.576Z,1005.94
2018-12-21T08:43:36.567Z,1005.90
2018-12-21T08:44:36.556Z,1005.88
2018-12-21T08:45:36.556Z,1005.85
2018-12-21T08:46:36.544Z,1005.86
2018-12-21T08:47:36.529Z,1005.79
2018-12-21T08:48:36.518Z,1005.84
2018-12-21T08:49:36.509Z,1005.84
2018-12-21T08:50:36.492Z,1005.82
2018-12-21T08:51:36.480Z,1005.78
2018-12-21T08:52:36.470Z,1005.81
2018-12-21T08:53:36.459Z,1005.77
2018-12-21T08:54:36.451Z,1005.76
2018-12-21T08:55:36.438Z,1005.71
2018-12-21T08:56:36.430Z,1005.70
2018-12-21T08:57:36.417Z,1005.72
2018-12-21T08:58:36.406Z,1005.68
2018-12-21T08:59:36.394Z,1005.69
2018-12-21T09:00:36.384Z,1005.73
2018-12-21T09:01:36.375Z,1005.75
2018-12-21T09:02:36.363Z,1005.71
2018-12-21T09:03:36.351Z,1005.73
2018-12-21T09:04:36.341Z,1005.72
2018-12-21T09:05:36.330Z,1005.70
2018-12-21T09:06:36.319Z,1005.66
2018-12-21T09:07:37.347Z,1005.62
2018-12-21T09:08:36.297Z,1005.61
2018-12-21T09:09:36.286Z,1005.62
2018-12-21T09:10:36.279Z,1005.64
2018-12-21T09:11:36.269Z,1005.57
2018-12-21T09:12:36.255Z,1005.57
2018-12-21T09:13:36.244Z,1005.52
2018-12-21T09:14:36.234Z,1005.56
2018-12-21T09:15:36.226Z,1005.49
2018-12-21T09:16:36.213Z,1005.54
2018-12-21T09:17:36.201Z,1005.48
2018-12-21T09:18:36.190Z,1005.50
2018-12-21T09:19:36.180Z,1005.49
2018-12-21T09:20:36.169Z,1005.46
2018-12-21T09:21:36.158Z,1005.48
2018-12-21T09:22:36.147Z,1005.46
2018-12-21T09:23:36.137Z,1005.45
2018-12-21T09:24:36.131Z,1005.45
2018-12-21T09:25:36.117Z,1005.41
2018-12-21T09:26:36.106Z,1005.42
2018-12-21T09:27:36.093Z,1005.35
2018-12-21T09:28:36.085Z,1005.36
2018-12-21T09:29:36.071Z,1005.34
2018-12-21T09:30:36.061Z,1005.29
2018-12-21T09:31:37.630Z,1005.31
2018-12-21T09:32:36.039Z,1005.32
2018-12-21T09:33:36.028Z,1005.29
2018-12-21T09:34:36.017Z,1005.25
2018-12-21T09:35:36.010Z,1005.22
2018-12-21T09:36:36.002Z,1005.24
2018-12-21T09:37:35.986Z,1005.20
2018-12-21T09:38:35.975Z,1005.14
2018-12-21T09:39:35.964Z,1005.18
2018-12-21T09:40:35.954Z,1005.14
2018-12-21T09:41:35.942Z,1005.17
2018-12-21T09:42:35.933Z,1005.05
2018-12-21T09:43:35.922Z,1005.03
2018-12-21T09:44:35.911Z,1005.03
2018-12-21T09:45:35.901Z,1005.04
2018-12-21T09:46:35.892Z,1005.02
2018-12-21T09:47:35.882Z,1005.01
2018-12-21T09:48:35.876Z,1004.99
2018-12-21T09:49:35.859Z,1005.00
2018-12-21T09:50:35.845Z,1004.94
2018-12-21T09:51:35.837Z,1004.88
2018-12-21T09:52:35.825Z,1004.90
2018-12-21T09:53:35.814Z,1004.90
2018-12-21T09:54:35.803Z,1004.90
2018-12-21T09:55:35.797Z,1004.88
2018-12-21T09:56:35.782Z,1004.80
2018-12-21T09:57:35.773Z,1004.83
2018-12-21T09:58:35.761Z,1004.72
2018-12-21T09:59:35.753Z,1004.78
2018-12-21T10:00:35.744Z,1004.71
2018-12-21T10:01:35.731Z,1004.73
2018-12-21T10:02:36.113Z,1004.70
2018-12-21T10:03:35.707Z,1004.71
2018-12-21T10:04:35.697Z,1004.66
2018-12-21T10:05:35.685Z,1004.60
2018-12-21T10:06:35.693Z,1004.59
2018-12-21T10:07:35.666Z,1004.52
2018-12-21T10:08:35.654Z,1004.50
2018-12-21T10:09:35.642Z,1004.52
2018-12-21T10:10:35.633Z,1004.51
2018-12-21T10:11:35.621Z,1004.48
2018-12-21T10:12:35.611Z,1004.45
2018-12-21T10:13:35.602Z,1004.47
2018-12-21T10:14:35.593Z,1004.41
2018-12-21T10:15:35.584Z,1004.37
2018-12-21T10:16:35.573Z,1004.36
2018-12-21T10:17:35.560Z,1004.34
2018-12-21T10:18:35.549Z,1004.33
2018-12-21T10:19:35.538Z,1004.33
2018-12-21T10:20:35.526Z,1004.27
2018-12-21T10:21:35.514Z,1004.22
2018-12-21T10:22:35.504Z,1004.17
2018-12-21T10:23:35.498Z,1004.18
2018-12-21T10:24:35.483Z,1004.14
2018-12-21T10:25:35.473Z,1004.18
2018-12-21T10:26:35.460Z,1004.14
2018-12-21T10:27:35.450Z,1004.09
2018-12-21T10:28:35.439Z,1004.09
2018-12-21T10:29:35.430Z,1004.05
2018-12-21T10:30:35.424Z,1004.05
2018-12-21T10:31:35.409Z,1004.01
2018-12-21T10:32:35.397Z,1004.01
2018-12-21T10:33:35.385Z,1003.98
2018-12-21T10:34:35.376Z,1003.92
2018-12-21T10:35:35.368Z,1003.90
2018-12-21T10:36:35.355Z,1003.88
2018-12-21T10:37:35.346Z,1003.78
2018-12-21T10:38:35.334Z,1003.77
2018-12-21T10:39:35.321Z,1003.73
2018-12-21T10:40:35.310Z,1003.71
2018-12-21T10:41:35.302Z,1003.70
2018-12-21T10:42:35.288Z,1003.67
2018-12-21T10:43:35.278Z,1003.65
2018-12-21T10:44:35.269Z,1003.57
2018-12-21T10:45:41.523Z,1003.54
2018-12-21T10:46:36.245Z,1003.47
2018-12-21T10:47:35.237Z,1003.46
2018-12-21T10:48:37.481Z,1003.42
2018-12-21T10:49:35.214Z,1003.45
2018-12-21T10:50:35.203Z,1003.39
2018-12-21T10:51:35.193Z,1003.40
2018-12-21T10:52:35.195Z,1003.36
2018-12-21T10:53:35.171Z,1003.34
2018-12-21T10:54:35.159Z,1003.27
2018-12-21T10:55:35.149Z,1003.23
2018-12-21T10:56:35.141Z,1003.19
2018-12-21T10:57:35.129Z,1003.13
2018-12-21T10:58:35.118Z,1003.12
2018-12-21T10:59:43.200Z,1003.08
2018-12-21T11:00:36.094Z,1003.05
2018-12-21T11:01:35.086Z,1003.06
2018-12-21T11:02:35.079Z,1003.10
2018-12-21T11:03:35.063Z,1003.00
2018-12-21T11:04:35.054Z,1003.06
2018-12-21T11:05:35.046Z,1003.04
2018-12-21T11:06:35.032Z,1002.97
2018-12-21T11:07:35.021Z,1002.92
2018-12-21T11:08:35.011Z,1002.90
2018-12-21T11:09:35.007Z,1002.88
2018-12-21T11:10:34.996Z,1002.88
2018-12-21T11:11:34.979Z,1002.87
2018-12-21T11:12:34.968Z,1002.77
2018-12-21T11:13:34.956Z,1002.76
2018-12-21T11:14:34.945Z,1002.70
2018-12-21T11:15:34.935Z,1002.77
2018-12-21T11:16:34.927Z,1002.74
2018-12-21T11:17:34.915Z,1002.68
2018-12-21T11:18:34.905Z,1002.68
2018-12-21T11:19:34.893Z,1002.64
2018-12-21T11:20:34.881Z,1002.62
2018-12-21T11:21:34.880Z,1002.56
2018-12-21T11:22:34.861Z,1002.48
2018-12-21T11:23:34.852Z,1002.52
2018-12-21T11:24:35.569Z,1002.46
2018-12-21T11:25:34.847Z,1002.47
2018-12-21T11:26:34.817Z,1002.42
2018-12-21T11:27:34.810Z,1002.42
2018-12-21T11:28:34.796Z,1002.38
2018-12-21T11:29:34.785Z,1002.31
2018-12-21T11:30:34.777Z,1002.26
2018-12-21T11:31:34.774Z,1002.30
2018-12-21T11:32:34.760Z,1002.27
2018-12-21T11:33:34.746Z,1002.21
2018-12-21T11:34:34.739Z,1002.14
2018-12-21T11:35:34.726Z,1002.15
2018-12-21T11:36:34.711Z,1002.10
2018-12-21T11:37:34.700Z,1002.12
2018-12-21T11:38:34.691Z,1002.03
2018-12-21T11:39:34.692Z,1002.08
2018-12-21T11:40:34.675Z,1001.99
2018-12-21T11:41:34.658Z,1001.96
2018-12-21T11:42:34.648Z,1001.98
2018-12-21T11:43:35.293Z,1001.94
2018-12-21T11:44:34.630Z,1001.87
2018-12-21T11:45:34.633Z,1001.89
2018-12-21T11:46:34.610Z,1001.86
2018-12-21T11:47:34.606Z,1001.76
2018-12-21T11:48:34.591Z,1001.75
2018-12-21T11:49:34.610Z,1001.66
2018-12-21T11:50:34.573Z,1001.65
2018-12-21T11:51:34.566Z,1001.61
2018-12-21T11:52:34.552Z,1001.59
2018-12-21T11:53:34.538Z,1001.58
2018-12-21T11:54:34.524Z,1001.54
2018-12-21T11:55:34.511Z,1001.58
2018-12-21T11:56:34.504Z,1001.49
2018-12-21T11:57:34.505Z,1001.56
2018-12-21T11:58:34.485Z,1001.50
2018-12-21T11:59:34.472Z,1001.49
2018-12-21T12:00:34.462Z,1001.46
2018-12-21T12:01:34.451Z,1001.39
2018-12-21T12:02:34.440Z,1001.33
2018-12-21T12:03:34.427Z,1001.31
2018-12-21T12:04:34.422Z,1001.23
2018-12-21T12:05:34.403Z,1001.27